createdAt,value
2022-08-09T00:00:02.924Z,24.6
2022-08-09T00:15:01.564Z,24.5
2022-08-09T00:30:01.932Z,24.5
2022-08-09T00:45:02.748Z,24.4
2022-08-09T01:00:05.392Z,24.4
2022-08-09T01:15:05.733Z,24.4
2022-08-09T01:30:01.447Z,24.3
2022-08-09T01:45:05.841Z,24.4
2022-08-09T02:00:05.601Z,24.4
2022-08-09T02:15:03.931Z,24.4
2022-08-09T02:30:04.422Z,24.3
2022-08-09T02:45:02.923Z,24.4
2022-08-09T03:00:03.564Z,24.4
2022-08-09T03:15:04.581Z,24.3
2022-08-09T03:30:04.475Z,24.3
2022-08-09T03:45:02.407Z,24.3
2022-08-09T04:00:03.604Z,24.3
2022-08-09T04:15:02.555Z,24.3
2022-08-09T04:30:01.744Z,24.4
2022-08-09T04:45:04.553Z,24.4
2022-08-09T05:00:05.481Z,24.4
2022-08-09T05:15:05.836Z,24.4
2022-08-09T05:30:04.584Z,24.4
2022-08-09T05:45:03.510Z,24.4
2022-08-09T06:00:05.565Z,24.4
2022-08-09T06:15:04.917Z,24.4
2022-08-09T06:30:02.847Z,24.4
2022-08-09T06:45:04.561Z,24.3
2022-08-09T07:00:46.262Z,24.2
2022-08-09T07:15:01.892Z,24
2022-08-09T07:30:05.656Z,24
2022-08-09T07:45:05.383Z,23.9
2022-08-09T08:00:04.665Z,23.9
2022-08-09T08:15:01.574Z,23.8
2022-08-09T08:30:03.581Z,23.9
2022-08-09T08:45:04.586Z,23.9
2022-08-09T09:00:02.529Z,23.8
2022-08-09T09:15:05.165Z,23.9
2022-08-09T09:30:03.678Z,23.9
2022-08-09T09:45:03.729Z,24
2022-08-09T10:00:03.810Z,24.1
2022-08-09T10:15:03.887Z,24.2
2022-08-09T10:30:04.936Z,24.2
2022-08-09T10:45:10.496Z,24.2
2022-08-09T11:00:01.567Z,24.2
2022-08-09T11:15:05.954Z,24.3
2022-08-09T11:30:01.681Z,24.3
2022-08-09T11:45:02.505Z,24.4
2022-08-09T12:00:03.734Z,24.4
2022-08-09T12:15:05.794Z,24.4
2022-08-09T12:30:03.544Z,24.4
2022-08-09T12:45:04.481Z,24.4
2022-08-09T13:00:05.002Z,24.4
2022-08-09T13:15:05.912Z,24.3
2022-08-09T13:30:02.659Z,24.4
2022-08-09T13:45:01.917Z,24.4
2022-08-09T14:00:03.727Z,24.4
2022-08-09T14:30:01.532Z,24.4
2022-08-09T14:45:14.708Z,24.4
2022-08-09T15:00:05.667Z,24.4
2022-08-09T15:15:05.423Z,24.4
2022-08-09T15:30:05.727Z,24.5
2022-08-09T15:45:05.465Z,24.6
2022-08-09T16:00:03.780Z,24.6
2022-08-09T16:15:02.855Z,24.6
2022-08-09T16:30:05.521Z,24.6
2022-08-09T16:45:01.852Z,24.6
2022-08-09T17:00:02.661Z,24.6
2022-08-09T17:15:02.895Z,24.6
2022-08-09T17:30:02.554Z,24.6
2022-08-09T17:45:05.791Z,24.7
2022-08-09T18:00:05.543Z,24.7
2022-08-09T18:15:02.871Z,24.7
2022-08-09T18:30:04.469Z,24.8
2022-08-09T18:45:02.965Z,24.7
2022-08-09T19:00:02.558Z,24.5
2022-08-09T19:15:03.815Z,24.4
2022-08-09T19:30:02.844Z,24.4
2022-08-09T19:45:04.500Z,24.4
2022-08-09T20:00:01.933Z,24.5
2022-08-09T20:15:04.461Z,24.7
2022-08-09T20:30:04.925Z,24.9
2022-08-09T20:45:03.850Z,24.9
2022-08-09T21:00:19.092Z,24.9
2022-08-09T21:15:04.427Z,24.9
2022-08-09T21:30:03.886Z,24.9
2022-08-09T21:45:03.965Z,24.9
2022-08-09T22:00:03.485Z,24.8
2022-08-09T22:15:04.496Z,24.8
2022-08-09T22:30:02.974Z,24.8
2022-08-09T22:45:01.637Z,24.8
2022-08-09T23:00:05.432Z,24.8
2022-08-09T23:15:03.781Z,24.8
2022-08-09T23:30:03.854Z,24.8
2022-08-09T23:45:01.892Z,24.8
